Terminal Aerodrome Forecast
Issued by NWS Mt. Holly, NJ

Current Version | Previous Version | Text Only | Print | Product List | Glossary On
Versions: 1 2 3 4 5 6 7 8 9 10 11 12 13
611
FTUS41 KPHI 251124
TAFRDG
TAF
KRDG 251124Z 2512/2612 VRB03KT P6SM SKC
     FM251400 07005KT P6SM SKC
     FM252000 10005KT P6SM SKC
     FM260000 VRB03KT P6SM SKC
     FM260600 VRB03KT 6SM BR SCT007
     FM261000 VRB03KT 4SM BR SCT003=

USA.gov is the U.S. government's official web portal to all federal, state and local government web resources and services.